Time;durP1;ratioP1;P1;durP2;ratioP2;P2;SDS_P1;SDS_P2;PMS_P1;PMS_P2;Temp;Humidity;BMP_temperature;BMP_pressure;BME280_temperature;BME280_humidity;BME280_pressure;Samples;Min_cycle;Max_cycle;Signal;HPM_P1;HPM_P2
2023/10/12 03:32:56;;;;;;;9.50;3.47;;;17.20;99.90;;;;;;4982506;23;20590;-67
2023/10/12 03:35:33;;;;;;;5.17;2.80;;;17.20;99.90;;;;;;4990616;28;20557;-67
2023/10/12 03:38:12;;;;;;;5.17;3.13;;;17.20;99.90;;;;;;4990819;28;20990;-68
2023/10/12 03:40:50;;;;;;;5.40;3.30;;;17.30;99.90;;;;;;4994943;28;20592;-69
2023/10/12 03:43:26;;;;;;;4.07;2.90;;;17.30;99.90;;;;;;4998765;28;20958;-67
2023/10/12 03:46:07;;;;;;;3.53;2.90;;;17.40;99.90;;;;;;4999640;28;20494;-67
2023/10/12 03:48:51;;;;;;;4.43;3.43;;;17.40;99.90;;;;;;5000028;28;20458;-66
2023/10/12 03:51:26;;;;;;;3.80;2.80;;;17.40;99.90;;;;;;4994595;28;20546;-67
2023/10/12 03:53:57;;;;;;;4.33;3.20;;;17.40;99.90;;;;;;4999559;28;20473;-68
2023/10/12 03:56:29;;;;;;;3.93;2.67;;;17.40;99.90;;;;;;4999545;28;20557;-69
2023/10/12 03:59:00;;;;;;;5.17;3.17;;;17.40;99.90;;;;;;4999007;28;20467;-68
2023/10/12 04:01:30;;;;;;;6.50;3.00;;;17.40;99.90;;;;;;5001233;28;20502;-68
2023/10/12 04:04:10;;;;;;;3.13;2.83;;;17.40;99.90;;;;;;4998224;28;20468;-68
2023/10/12 04:07:04;;;;;;;3.37;2.73;;;17.40;99.90;;;;;;5000471;28;21038;-68
2023/10/12 04:09:39;;;;;;;2.93;2.63;;;17.40;99.90;;;;;;5003696;28;21014;-68
2023/10/12 04:12:16;;;;;;;5.07;2.87;;;17.40;99.90;;;;;;5006415;28;20482;-68
2023/10/12 04:14:48;;;;;;;8.97;4.50;;;17.40;99.90;;;;;;5006036;28;20876;-68
2023/10/12 04:20:14;;;;;;;3.23;2.97;;;17.40;99.90;;;;;;5009699;28;20453;-68
2023/10/12 04:25:34;;;;;;;4.50;2.97;;;17.40;99.90;;;;;;4998314;28;20464;-68
2023/10/12 04:28:16;;;;;;;3.80;3.00;;;17.40;99.90;;;;;;5001931;28;20454;-68
2023/10/12 04:31:20;;;;;;;4.67;2.97;;;17.30;99.90;;;;;;5005591;28;20569;-68
2023/10/12 04:33:40;;;;;;;4.93;2.80;;;17.30;99.90;;;;;;5004515;28;20459;-69
2023/10/12 04:36:14;;;;;;;3.47;2.67;;;17.30;99.90;;;;;;5008866;28;20473;-68
2023/10/12 04:38:56;;;;;;;4.87;3.03;;;17.30;99.90;;;;;;5006101;28;20460;-67
2023/10/12 04:41:25;;;;;;;3.80;3.07;;;17.30;99.90;;;;;;5003623;28;20484;-68
2023/10/12 04:44:06;;;;;;;3.33;2.63;;;17.20;99.90;;;;;;5004537;28;20464;-68
2023/10/12 04:46:47;;;;;;;5.00;3.30;;;17.20;99.90;;;;;;5013107;28;20465;-68
2023/10/12 04:52:13;;;;;;;5.10;2.63;;;17.10;99.90;;;;;;5004624;28;20475;-68
2023/10/12 04:54:59;;;;;;;3.93;2.97;;;17.10;99.90;;;;;;5007249;28;20464;-68
2023/10/12 04:57:27;;;;;;;4.17;2.97;;;17.10;99.90;;;;;;5006590;28;20497;-68
2023/10/12 05:00:08;;;;;;;3.40;3.10;;;17.10;99.90;;;;;;5005073;28;20481;-68
2023/10/12 05:02:53;;;;;;;2.70;2.50;;;17.10;99.90;;;;;;5005012;28;20488;-68
2023/10/12 05:08:05;;;;;;;4.30;2.97;;;17.10;99.90;;;;;;5006616;28;20472;-68
2023/10/12 05:10:42;;;;;;;3.60;2.67;;;17.00;99.90;;;;;;5008676;28;20463;-68
2023/10/12 05:13:10;;;;;;;5.53;3.37;;;17.00;99.90;;;;;;5009984;28;20468;-68
2023/10/12 05:15:42;;;;;;;6.07;3.47;;;17.00;99.90;;;;;;5004668;28;20470;-68
2023/10/12 05:18:10;;;;;;;3.53;3.20;;;17.00;99.90;;;;;;5012556;28;21211;-68
2023/10/12 05:20:40;;;;;;;3.93;3.50;;;17.00;99.90;;;;;;5012734;28;20482;-68
2023/10/12 05:23:08;;;;;;;3.90;3.20;;;17.00;99.90;;;;;;5009900;28;20466;-68
2023/10/12 05:25:48;;;;;;;2.93;2.60;;;17.00;99.90;;;;;;5003976;28;20468;-68
2023/10/12 05:28:15;;;;;;;3.57;2.47;;;17.00;99.90;;;;;;5006595;28;20463;-69
2023/10/12 05:30:47;;;;;;;4.93;3.10;;;17.00;99.90;;;;;;5004892;28;20588;-68
2023/10/12 05:33:28;;;;;;;5.70;3.80;;;17.00;99.90;;;;;;5006224;28;20467;-67
2023/10/12 05:35:57;;;;;;;3.20;2.83;;;17.00;99.90;;;;;;5004384;28;20838;-68
2023/10/12 05:38:34;;;;;;;3.77;3.37;;;17.00;99.90;;;;;;5004394;28;20573;-68
2023/10/12 05:41:00;;;;;;;5.30;3.10;;;17.00;99.90;;;;;;5005926;28;20492;-68
2023/10/12 05:43:31;;;;;;;5.17;3.23;;;17.00;99.90;;;;;;5005456;28;20463;-68
2023/10/12 05:46:01;;;;;;;5.13;3.87;;;17.00;99.90;;;;;;5006208;28;20470;-68
2023/10/12 05:48:28;;;;;;;3.30;3.00;;;16.90;99.90;;;;;;5009380;28;20547;-68
2023/10/12 05:50:54;;;;;;;5.00;3.10;;;16.90;99.90;;;;;;5006895;28;20872;-68
2023/10/12 05:53:21;;;;;;;4.73;3.20;;;16.80;99.90;;;;;;5006712;28;20463;-67
2023/10/12 05:55:49;;;;;;;4.87;3.50;;;16.80;99.90;;;;;;5003124;28;20815;-68
2023/10/12 05:58:16;;;;;;;3.70;2.70;;;16.80;99.90;;;;;;5006587;28;20493;-68
2023/10/12 06:00:45;;;;;;;4.00;2.60;;;16.80;99.90;;;;;;5003772;28;20990;-68
2023/10/12 06:03:16;;;;;;;4.17;2.77;;;16.80;99.90;;;;;;5004324;28;20516;-67
2023/10/12 06:05:43;;;;;;;4.23;2.63;;;16.80;99.90;;;;;;5003605;28;20516;-67
2023/10/12 06:08:12;;;;;;;8.73;3.17;;;16.80;99.90;;;;;;5001207;28;20946;-68
2023/10/12 06:10:41;;;;;;;3.60;2.87;;;16.80;99.90;;;;;;5007533;28;20482;-68
2023/10/12 06:13:10;;;;;;;3.80;3.20;;;16.80;99.90;;;;;;5006395;28;20928;-68
2023/10/12 06:15:40;;;;;;;5.10;2.90;;;16.90;99.90;;;;;;5007214;28;20462;-68
2023/10/12 06:18:10;;;;;;;6.60;3.80;;;16.90;99.90;;;;;;5005393;28;20490;-67
2023/10/12 06:20:40;;;;;;;2.93;2.60;;;17.00;99.90;;;;;;5003004;28;20870;-67
2023/10/12 06:23:09;;;;;;;3.70;2.70;;;17.00;99.90;;;;;;5007058;28;20468;-67
2023/10/12 06:25:38;;;;;;;3.63;2.77;;;17.10;99.90;;;;;;5003778;28;20469;-67
2023/10/12 06:28:14;;;;;;;5.57;3.53;;;17.20;99.90;;;;;;5003955;28;20468;-67
2023/10/12 06:30:42;;;;;;;4.10;2.90;;;17.20;99.90;;;;;;5001908;28;20881;-67
2023/10/12 06:33:12;;;;;;;4.20;3.20;;;17.20;99.90;;;;;;5001946;28;20541;-67
2023/10/12 06:35:59;;;;;;;5.33;3.50;;;17.30;99.90;;;;;;5002502;28;20915;-67
2023/10/12 06:38:39;;;;;;;3.53;3.20;;;17.40;99.90;;;;;;5002328;28;21036;-68
2023/10/12 06:44:13;;;;;;;5.53;2.80;;;17.60;99.90;;;;;;5006362;28;20454;-67
2023/10/12 06:46:46;;;;;;;5.13;3.07;;;17.70;99.90;;;;;;5005476;28;21083;-68
2023/10/12 06:49:18;;;;;;;6.90;5.17;;;17.60;99.90;;;;;;5000967;28;20461;-68
2023/10/12 06:51:53;;;;;;;5.27;3.23;;;17.70;99.90;;;;;;5003361;28;20864;-68
2023/10/12 06:54:31;;;;;;;4.07;3.13;;;17.80;99.90;;;;;;5001962;28;20473;-68
2023/10/12 06:57:29;;;;;;;5.47;3.10;;;17.90;99.90;;;;;;5008026;28;20476;-67
2023/10/12 07:00:15;;;;;;;3.93;3.17;;;18.00;99.90;;;;;;5002764;28;20463;-67
2023/10/12 07:02:45;;;;;;;3.20;2.83;;;18.00;99.90;;;;;;5003570;28;20825;-67
2023/10/12 07:05:11;;;;;;;4.50;3.07;;;18.10;99.90;;;;;;5000718;28;20980;-67
2023/10/12 07:07:41;;;;;;;5.00;3.00;;;18.20;99.90;;;;;;5006455;28;20467;-67
2023/10/12 07:10:23;;;;;;;3.20;2.77;;;18.30;99.90;;;;;;5005428;28;20265;-67
2023/10/12 07:12:50;;;;;;;5.00;3.10;;;18.40;99.90;;;;;;5003281;28;20563;-68
2023/10/12 07:15:20;;;;;;;3.90;3.10;;;18.50;99.90;;;;;;5005987;28;20472;-68
2023/10/12 07:17:49;;;;;;;4.00;3.43;;;18.50;99.90;;;;;;5005074;28;20487;-67
2023/10/12 07:20:27;;;;;;;6.23;5.17;;;18.60;99.90;;;;;;5005864;28;20464;-68
2023/10/12 07:22:55;;;;;;;4.43;3.03;;;18.60;99.90;;;;;;5005595;28;20891;-68
2023/10/12 07:25:23;;;;;;;6.97;3.73;;;18.70;99.90;;;;;;5005685;28;20527;-68
2023/10/12 07:27:56;;;;;;;3.63;2.97;;;18.90;99.90;;;;;;5002933;28;20500;-68
2023/10/12 07:30:30;;;;;;;5.47;3.13;;;19.00;99.90;;;;;;5006104;28;20475;-68
2023/10/12 07:33:04;;;;;;;5.83;3.33;;;19.00;99.90;;;;;;5005480;28;20783;-68
2023/10/12 07:35:35;;;;;;;3.73;3.03;;;18.90;99.90;;;;;;5005851;28;20559;-68
2023/10/12 07:38:05;;;;;;;4.40;2.80;;;18.90;99.90;;;;;;5005452;28;20524;-67
2023/10/12 07:40:37;;;;;;;5.67;3.37;;;19.00;99.90;;;;;;5005139;28;20873;-68
2023/10/12 07:43:06;;;;;;;4.30;3.30;;;18.90;99.90;;;;;;5005071;28;20468;-67
2023/10/12 07:45:38;;;;;;;3.73;3.33;;;18.90;99.90;;;;;;5004962;28;20563;-68
2023/10/12 07:48:09;;;;;;;5.83;3.70;;;18.80;99.90;;;;;;5005011;28;20471;-67
2023/10/12 07:50:45;;;;;;;4.23;3.10;;;18.70;99.90;;;;;;5008271;28;20494;-67
2023/10/12 07:53:22;;;;;;;4.10;3.00;;;18.70;99.90;;;;;;5002659;28;21015;-68
2023/10/12 07:55:53;;;;;;;3.47;2.90;;;18.70;99.90;;;;;;5006904;28;20943;-68
2023/10/12 07:58:21;;;;;;;5.43;3.03;;;18.70;99.90;;;;;;5009722;28;20492;-68
2023/10/12 08:01:02;;;;;;;4.17;2.83;;;18.70;99.90;;;;;;5006872;28;20568;-68
2023/10/12 08:03:37;;;;;;;3.00;2.73;;;18.70;99.90;;;;;;5009565;28;21027;-67
2023/10/12 08:06:15;;;;;;;4.70;3.20;;;18.70;99.90;;;;;;5008247;28;20479;-68
2023/10/12 08:08:44;;;;;;;5.00;3.00;;;18.70;99.90;;;;;;5007448;28;20470;-68
2023/10/12 08:11:19;;;;;;;5.50;4.00;;;18.70;99.90;;;;;;5003785;28;20489;-67
2023/10/12 08:13:49;;;;;;;4.63;3.33;;;18.60;99.90;;;;;;5009425;28;20510;-67
2023/10/12 08:16:25;;;;;;;6.47;3.70;;;18.60;99.90;;;;;;5012916;28;20511;-67
2023/10/12 08:21:41;;;;;;;4.83;3.40;;;18.50;99.90;;;;;;5010400;28;20487;-68
2023/10/12 08:24:15;;;;;;;6.00;3.60;;;18.50;99.90;;;;;;5008083;28;20462;-68
2023/10/12 08:26:49;;;;;;;3.50;3.00;;;18.50;99.90;;;;;;5005503;28;20467;-67
2023/10/12 08:29:23;;;;;;;4.60;3.17;;;18.50;99.90;;;;;;5003913;28;20468;-68
2023/10/12 08:31:49;;;;;;;6.50;3.97;;;18.50;99.90;;;;;;5008466;28;20489;-68
2023/10/12 08:37:17;;;;;;;7.73;3.50;;;18.50;99.90;;;;;;5007175;28;20468;-68
2023/10/12 08:39:51;;;;;;;6.70;3.20;;;18.50;99.90;;;;;;5006801;28;20567;-68
2023/10/12 08:42:39;;;;;;;4.77;3.33;;;18.50;99.90;;;;;;5004055;28;20498;-67
2023/10/12 08:45:09;;;;;;;4.00;2.70;;;18.40;99.90;;;;;;5008569;28;20459;-68
2023/10/12 08:47:50;;;;;;;3.97;3.10;;;18.40;99.90;;;;;;5007749;28;20485;-67
2023/10/12 08:53:05;;;;;;;4.60;3.63;;;18.40;99.90;;;;;;5009509;28;20532;-67
2023/10/12 08:55:33;;;;;;;3.40;3.00;;;18.40;99.90;;;;;;5008531;28;20464;-67
2023/10/12 08:58:12;;;;;;;7.43;3.30;;;18.40;99.90;;;;;;5007351;28;20568;-67
2023/10/12 09:00:44;;;;;;;4.30;3.43;;;18.40;99.90;;;;;;5010650;28;20737;-67
2023/10/12 09:03:24;;;;;;;4.00;3.50;;;18.40;99.90;;;;;;5002816;28;20470;-67
2023/10/12 09:05:54;;;;;;;3.90;2.83;;;18.30;99.90;;;;;;5006054;28;20482;-68
2023/10/12 09:11:25;;;;;;;4.10;3.70;;;18.30;99.90;;;;;;5108721;27;20574;-67
2023/10/12 09:13:54;;;;;;;5.37;3.53;;;18.30;99.90;;;;;;5102347;28;20457;-66
2023/10/12 09:16:21;;;;;;;4.83;3.20;;;18.30;99.90;;;;;;5103829;28;20828;-67
2023/10/12 09:18:49;;;;;;;3.87;3.20;;;18.30;99.90;;;;;;5102413;28;20926;-66
2023/10/12 09:21:28;;;;;;;3.30;2.87;;;18.30;99.90;;;;;;5104096;28;20473;-67
2023/10/12 09:24:06;;;;;;;10.00;3.70;;;18.30;99.90;;;;;;5101677;28;20466;-66
2023/10/12 09:26:37;;;;;;;3.87;3.03;;;18.30;99.90;;;;;;5103525;28;20456;-66
2023/10/12 09:32:15;;;;;;;5.20;3.07;;;18.40;99.90;;;;;;5099928;28;21053;-67
2023/10/12 09:34:44;;;;;;;3.50;3.20;;;18.30;99.90;;;;;;5102669;28;20464;-67
2023/10/12 09:37:17;;;;;;;6.30;3.20;;;18.40;99.90;;;;;;5090579;28;20456;-67
2023/10/12 09:39:46;;;;;;;5.40;4.10;;;18.40;99.90;;;;;;5099800;28;20961;-67
2023/10/12 09:42:26;;;;;;;6.43;3.80;;;18.40;99.90;;;;;;5088998;28;20481;-67
2023/10/12 09:45:01;;;;;;;6.57;3.27;;;18.40;99.90;;;;;;5098765;28;20549;-67
2023/10/12 09:47:43;;;;;;;5.07;3.57;;;18.40;99.90;;;;;;5100903;28;20491;-66
2023/10/12 09:50:17;;;;;;;5.40;3.50;;;18.50;99.90;;;;;;5100938;28;20504;-67
2023/10/12 09:52:58;;;;;;;3.93;3.53;;;18.50;99.90;;;;;;5098783;28;20470;-67
2023/10/12 09:55:32;;;;;;;4.67;3.30;;;18.50;99.90;;;;;;5092164;28;20558;-67
2023/10/12 09:58:15;;;;;;;5.50;3.43;;;18.50;99.90;;;;;;5097577;28;20465;-67
2023/10/12 10:00:59;;;;;;;5.30;4.00;;;18.60;99.90;;;;;;5099251;28;20479;-67
2023/10/12 10:03:35;;;;;;;4.63;3.33;;;18.60;99.90;;;;;;5092284;28;20456;-67
2023/10/12 10:06:19;;;;;;;6.80;3.57;;;18.60;99.90;;;;;;5099326;28;20523;-66
2023/10/12 10:08:57;;;;;;;5.43;3.63;;;18.60;99.90;;;;;;5098883;28;20461;-67
2023/10/12 10:11:26;;;;;;;4.17;3.23;;;18.60;99.90;;;;;;5100781;28;21008;-67
2023/10/12 10:13:56;;;;;;;13.77;4.27;;;18.60;99.90;;;;;;5097972;28;20541;-65
2023/10/12 10:16:23;;;;;;;4.17;3.10;;;18.60;99.90;;;;;;5100090;28;20457;-67
2023/10/12 10:18:57;;;;;;;6.37;3.13;;;18.70;99.90;;;;;;5098869;28;20492;-67
2023/10/12 10:21:30;;;;;;;4.43;3.50;;;18.70;99.90;;;;;;5094036;28;20480;-67
2023/10/12 10:23:58;;;;;;;3.87;3.37;;;18.70;99.90;;;;;;5085045;28;20469;-67
2023/10/12 10:26:31;;;;;;;6.50;3.37;;;18.70;99.90;;;;;;5087834;28;20471;-67
2023/10/12 10:29:05;;;;;;;5.93;3.90;;;18.80;99.90;;;;;;5084754;28;20455;-67
2023/10/12 10:31:40;;;;;;;3.80;3.00;;;18.80;99.90;;;;;;5083962;28;20864;-67
2023/10/12 10:34:11;;;;;;;4.60;3.17;;;18.80;99.90;;;;;;5087017;28;20963;-67
2023/10/12 10:36:40;;;;;;;4.63;3.80;;;18.80;99.90;;;;;;5086505;28;20894;-67
2023/10/12 10:39:28;;;;;;;4.60;3.10;;;18.90;99.90;;;;;;5086984;28;20462;-67
2023/10/12 10:42:00;;;;;;;3.40;3.10;;;18.90;99.90;;;;;;5078065;28;20487;-67
2023/10/12 10:44:29;;;;;;;6.27;3.63;;;18.90;99.90;;;;;;5082616;28;20462;-67
2023/10/12 10:47:00;;;;;;;4.20;3.73;;;18.90;99.90;;;;;;5085687;28;20963;-67
2023/10/12 10:49:31;;;;;;;5.17;3.77;;;19.00;99.90;;;;;;5088358;28;20457;-67
2023/10/12 10:52:13;;;;;;;4.67;3.80;;;19.00;99.90;;;;;;5086004;28;20569;-68
2023/10/12 10:54:56;;;;;;;4.57;3.47;;;19.00;99.90;;;;;;5087104;28;20468;-67
2023/10/12 10:57:32;;;;;;;4.50;3.30;;;19.10;99.90;;;;;;5072556;28;20458;-66
2023/10/12 11:00:01;;;;;;;5.67;3.30;;;19.10;99.90;;;;;;5085412;28;20845;-67
2023/10/12 11:02:28;;;;;;;4.53;3.53;;;19.10;99.90;;;;;;5087933;28;20484;-67
2023/10/12 11:05:00;;;;;;;6.00;3.80;;;19.20;99.90;;;;;;5085980;28;20466;-67
2023/10/12 11:07:27;;;;;;;3.87;3.47;;;19.20;99.90;;;;;;5087864;28;20454;-67
2023/10/12 11:10:19;;;;;;;4.00;3.47;;;19.30;99.90;;;;;;5086019;28;20481;-67
2023/10/12 11:12:45;;;;;;;5.47;3.47;;;19.30;99.90;;;;;;5085842;28;20935;-67
2023/10/12 11:15:19;;;;;;;4.10;3.53;;;19.40;99.90;;;;;;5080976;28;20897;-67
2023/10/12 11:18:07;;;;;;;3.43;3.13;;;19.40;99.90;;;;;;5085239;28;20470;-66
2023/10/12 11:20:43;;;;;;;4.67;3.67;;;19.40;99.90;;;;;;5087193;28;20478;-67
2023/10/12 11:23:11;;;;;;;3.83;3.33;;;19.40;99.90;;;;;;5074265;28;20457;-67
2023/10/12 11:25:41;;;;;;;5.27;3.20;;;19.50;99.90;;;;;;5080394;28;20463;-67
2023/10/12 11:28:19;;;;;;;4.90;3.80;;;19.50;99.90;;;;;;5090243;28;20544;-67
2023/10/12 11:30:49;;;;;;;4.37;3.60;;;19.50;99.90;;;;;;5087773;28;20485;-67
2023/10/12 11:33:27;;;;;;;3.90;3.47;;;19.60;99.90;;;;;;5091305;28;20476;-67
2023/10/12 11:35:54;;;;;;;5.30;4.00;;;19.60;99.90;;;;;;5088230;28;20953;-67
2023/10/12 11:38:24;;;;;;;6.90;3.37;;;19.60;99.90;;;;;;5081189;28;20462;-67
2023/10/12 11:40:53;;;;;;;4.10;3.30;;;19.60;99.90;;;;;;5087131;28;20474;-66
2023/10/12 11:43:21;;;;;;;4.17;3.70;;;19.70;99.90;;;;;;5090239;28;20541;-67
2023/10/12 11:46:01;;;;;;;3.90;3.50;;;19.70;99.90;;;;;;5088513;28;20511;-67
2023/10/12 11:48:28;;;;;;;4.10;3.70;;;19.70;99.90;;;;;;5090663;28;20453;-67
2023/10/12 11:50:55;;;;;;;5.50;3.80;;;19.80;99.90;;;;;;5087996;28;20493;-67
2023/10/12 11:53:24;;;;;;;4.00;3.30;;;19.80;99.90;;;;;;5090511;28;20561;-67
2023/10/12 11:56:02;;;;;;;4.10;3.20;;;19.80;99.90;;;;;;5088426;28;20503;-67
2023/10/12 11:58:28;;;;;;;4.97;4.50;;;19.80;99.90;;;;;;5090106;28;21030;-67
2023/10/12 12:01:00;;;;;;;7.60;2.87;;;19.90;99.90;;;;;;5088606;28;20481;-67
2023/10/12 12:03:27;;;;;;;3.60;3.20;;;20.00;99.90;;;;;;5090815;28;20550;-67
2023/10/12 12:05:54;;;;;;;4.07;3.30;;;20.00;99.90;;;;;;5088561;28;20470;-67
2023/10/12 12:08:24;;;;;;;4.90;3.63;;;20.10;99.90;;;;;;5091170;28;20465;-67
2023/10/12 12:10:55;;;;;;;4.30;3.20;;;20.10;99.90;;;;;;5089432;28;20485;-67
2023/10/12 12:13:23;;;;;;;4.07;3.23;;;20.20;99.90;;;;;;5090387;28;20466;-67
2023/10/12 12:15:50;;;;;;;3.30;3.00;;;20.20;99.90;;;;;;5088148;28;20453;-67
2023/10/12 12:18:19;;;;;;;5.60;3.37;;;20.30;99.90;;;;;;5089878;28;20454;-67
2023/10/12 12:20:47;;;;;;;4.47;3.40;;;20.30;99.90;;;;;;5081071;28;20474;-66
2023/10/12 12:23:14;;;;;;;7.43;3.63;;;20.40;99.90;;;;;;5089661;28;20461;-67
2023/10/12 12:25:41;;;;;;;4.03;3.50;;;20.40;99.90;;;;;;5089393;28;20545;-67
2023/10/12 12:28:13;;;;;;;4.20;2.77;;;20.40;99.90;;;;;;5089510;28;20461;-67
2023/10/12 12:30:46;;;;;;;5.17;3.53;;;20.40;99.90;;;;;;5089217;28;20492;-67
2023/10/12 12:33:15;;;;;;;4.40;3.60;;;20.40;99.90;;;;;;5076645;28;20807;-67
2023/10/12 12:35:46;;;;;;;4.50;3.07;;;20.40;99.90;;;;;;5089126;28;20818;-67
2023/10/12 12:38:43;;;;;;;4.97;3.40;;;20.40;99.90;;;;;;5076216;28;20466;-67
2023/10/12 12:41:18;;;;;;;5.27;4.00;;;20.30;99.90;;;;;;5089218;28;20496;-67
2023/10/12 12:43:45;;;;;;;5.93;3.80;;;20.30;99.90;;;;;;5088046;28;20461;-65
2023/10/12 12:46:11;;;;;;;5.87;3.87;;;20.30;99.90;;;;;;5075423;28;20450;-66
2023/10/12 12:48:38;;;;;;;5.47;4.07;;;20.30;99.90;;;;;;5089524;28;20950;-66
2023/10/12 12:51:10;;;;;;;3.73;3.33;;;20.20;99.90;;;;;;5088943;28;20490;-66
2023/10/12 12:53:36;;;;;;;4.73;3.60;;;20.20;99.90;;;;;;5089710;28;20458;-65
2023/10/12 12:56:03;;;;;;;3.80;3.03;;;20.20;99.90;;;;;;5088416;28;20467;-66
2023/10/12 12:58:32;;;;;;;5.77;4.40;;;20.10;99.90;;;;;;5082831;28;20533;-66
2023/10/12 13:01:00;;;;;;;5.20;4.00;;;20.00;99.90;;;;;;5088385;28;20489;-66
2023/10/12 13:03:28;;;;;;;3.90;3.50;;;20.00;99.90;;;;;;5089887;28;20458;-65
2023/10/12 13:05:55;;;;;;;4.77;3.30;;;20.00;99.90;;;;;;5087598;28;20976;-66
2023/10/12 13:08:23;;;;;;;3.63;3.33;;;19.90;99.90;;;;;;5090239;28;20458;-66
2023/10/12 13:10:50;;;;;;;3.57;3.27;;;19.80;99.90;;;;;;5087462;28;20486;-67
2023/10/12 13:13:16;;;;;;;6.23;3.80;;;19.80;99.90;;;;;;5081461;28;20453;-66
2023/10/12 13:15:47;;;;;;;3.97;3.60;;;19.80;99.90;;;;;;5087305;28;20469;-64
2023/10/12 13:18:15;;;;;;;6.23;3.87;;;19.80;99.90;;;;;;5074332;28;20514;-66
2023/10/12 13:20:46;;;;;;;5.33;3.83;;;19.70;99.90;;;;;;5088431;28;20474;-66
2023/10/12 13:23:13;;;;;;;4.93;3.60;;;19.70;99.90;;;;;;5071508;28;20462;-66
2023/10/12 13:25:41;;;;;;;4.93;3.17;;;19.70;99.90;;;;;;5088005;28;21017;-66
2023/10/12 13:28:10;;;;;;;3.63;3.23;;;19.70;99.90;;;;;;5088506;28;20461;-66
2023/10/12 13:30:36;;;;;;;4.60;3.30;;;19.80;99.90;;;;;;5088620;28;20492;-66
2023/10/12 13:33:05;;;;;;;5.03;3.80;;;19.80;99.90;;;;;;5081843;28;20466;-68
2023/10/12 13:35:37;;;;;;;7.33;4.00;;;19.90;99.90;;;;;;5088782;28;20465;-67
2023/10/12 13:38:03;;;;;;;5.13;3.50;;;20.00;99.90;;;;;;5086924;28;20834;-68
2023/10/12 13:40:30;;;;;;;6.47;4.20;;;20.00;99.90;;;;;;5089067;28;20910;-68
2023/10/12 13:43:06;;;;;;;5.60;4.20;;;20.00;99.90;;;;;;5087870;28;20466;-68
2023/10/12 13:45:33;;;;;;;5.53;3.90;;;20.00;99.90;;;;;;5088482;28;20458;-68
2023/10/12 13:48:01;;;;;;;6.50;4.23;;;20.10;99.90;;;;;;5079249;28;20542;-68
2023/10/12 13:50:29;;;;;;;8.97;4.27;;;20.10;99.90;;;;;;5089405;28;20511;-68
2023/10/12 13:52:57;;;;;;;5.17;3.77;;;20.10;99.90;;;;;;5087104;28;20511;-68
2023/10/12 13:55:26;;;;;;;4.10;3.70;;;20.10;99.90;;;;;;5083220;28;20462;-68
2023/10/12 13:57:57;;;;;;;6.03;3.77;;;20.10;99.90;;;;;;5076231;28;20499;-68
2023/10/12 14:00:26;;;;;;;6.33;4.17;;;20.20;99.90;;;;;;5093414;28;20462;-68
2023/10/12 14:02:56;;;;;;;6.27;4.20;;;20.20;99.90;;;;;;5091222;28;20468;-67
2023/10/12 14:05:27;;;;;;;11.63;3.70;;;20.20;99.90;;;;;;5087258;28;20462;-68
2023/10/12 14:07:59;;;;;;;6.23;3.97;;;20.20;99.90;;;;;;5091759;28;20453;-68
2023/10/12 14:10:27;;;;;;;3.60;3.30;;;20.20;99.90;;;;;;5092803;28;20462;-67
2023/10/12 14:12:55;;;;;;;3.47;3.10;;;20.20;99.90;;;;;;5084290;28;20457;-68
2023/10/12 14:15:26;;;;;;;4.07;3.40;;;20.30;99.90;;;;;;5087888;28;20868;-68
2023/10/12 14:17:56;;;;;;;5.63;3.17;;;20.30;99.90;;;;;;5082399;28;20461;-69
2023/10/12 14:20:26;;;;;;;3.73;3.00;;;20.30;99.90;;;;;;5093204;28;20515;-68
2023/10/12 14:22:57;;;;;;;3.27;2.97;;;20.40;99.90;;;;;;5075541;28;20583;-68
2023/10/12 14:25:28;;;;;;;5.23;3.37;;;20.40;99.90;;;;;;5079139;28;20545;-68
2023/10/12 14:27:57;;;;;;;4.33;3.30;;;20.50;99.90;;;;;;5090602;28;20552;-68
2023/10/12 14:30:28;;;;;;;3.50;3.10;;;20.60;99.90;;;;;;5079078;28;20950;-68
2023/10/12 14:33:02;;;;;;;7.47;4.50;;;20.60;99.90;;;;;;5076443;28;20459;-68
2023/10/12 14:35:30;;;;;;;3.47;3.00;;;20.60;99.90;;;;;;5084952;28;20977;-68
2023/10/12 14:38:02;;;;;;;4.00;3.30;;;20.60;99.90;;;;;;5083779;28;20462;-69
2023/10/12 14:40:31;;;;;;;5.00;3.30;;;20.70;99.90;;;;;;5082085;28;20461;-69
2023/10/12 14:43:05;;;;;;;3.87;3.00;;;20.70;99.90;;;;;;5086855;28;20462;-68
2023/10/12 14:45:35;;;;;;;5.57;3.10;;;20.80;99.90;;;;;;5092007;28;20464;-69
2023/10/12 14:48:09;;;;;;;4.70;3.47;;;20.80;99.90;;;;;;5082076;28;20470;-69
2023/10/12 14:50:39;;;;;;;4.50;3.30;;;20.90;99.90;;;;;;5092282;28;20542;-68
2023/10/12 14:53:09;;;;;;;3.97;3.40;;;20.90;99.90;;;;;;5091501;28;20466;-68
2023/10/12 14:55:36;;;;;;;6.90;3.40;;;20.90;99.90;;;;;;5092218;28;21021;-68
2023/10/12 14:58:07;;;;;;;3.13;2.80;;;20.90;99.90;;;;;;5091151;28;20892;-68
2023/10/12 15:00:35;;;;;;;5.40;3.10;;;21.00;99.90;;;;;;5092455;28;20594;-68
2023/10/12 15:03:08;;;;;;;5.10;2.93;;;21.00;99.90;;;;;;5091624;28;20462;-68
2023/10/12 15:05:39;;;;;;;4.30;2.90;;;21.00;99.90;;;;;;5091959;28;20458;-68
2023/10/12 15:08:08;;;;;;;3.80;2.93;;;21.00;99.90;;;;;;5090388;28;20887;-68
2023/10/12 15:10:43;;;;;;;7.90;3.30;;;21.00;99.90;;;;;;5079433;28;20489;-68
2023/10/12 15:15:47;;;;;;;4.27;3.40;;;21.00;99.90;;;;;;5326268;22;20487;-68
2023/10/12 15:18:16;;;;;;;4.73;3.10;;;21.10;99.90;;;;;;4999304;28;20896;-66
2023/10/12 15:20:44;;;;;;;3.63;3.00;;;21.10;99.90;;;;;;4996114;28;20487;-67
2023/10/12 15:23:12;;;;;;;3.60;2.80;;;21.20;99.90;;;;;;4985670;28;20821;-67
2023/10/12 15:25:39;;;;;;;3.93;3.13;;;21.20;99.90;;;;;;4982719;28;20466;-67
2023/10/12 15:28:07;;;;;;;4.10;3.03;;;21.20;99.90;;;;;;4985223;28;20632;-67
2023/10/12 15:30:36;;;;;;;4.40;2.63;;;21.20;99.90;;;;;;4988524;28;20546;-68
2023/10/12 15:33:04;;;;;;;3.60;3.20;;;21.20;99.90;;;;;;4989322;28;20486;-67
2023/10/12 15:35:32;;;;;;;3.03;2.70;;;21.30;99.90;;;;;;4983393;28;20459;-68
2023/10/12 15:37:59;;;;;;;4.00;2.80;;;21.20;99.90;;;;;;4984449;28;20960;-67
2023/10/12 15:40:28;;;;;;;3.13;2.57;;;21.30;99.90;;;;;;4984889;28;20466;-67
2023/10/12 15:42:58;;;;;;;3.17;2.30;;;21.30;99.90;;;;;;4992091;28;20545;-67
2023/10/12 15:45:28;;;;;;;3.10;2.80;;;21.30;99.90;;;;;;4991157;28;20470;-67
2023/10/12 15:47:56;;;;;;;3.57;2.60;;;21.30;99.90;;;;;;4983508;28;20472;-67
2023/10/12 15:50:24;;;;;;;3.10;2.80;;;21.30;99.90;;;;;;4983738;28;20480;-67
2023/10/12 15:52:55;;;;;;;4.10;2.83;;;21.30;99.90;;;;;;4982410;28;20491;-67
2023/10/12 15:55:23;;;;;;;3.30;2.90;;;21.30;99.90;;;;;;4985427;28;20470;-67
2023/10/12 15:57:52;;;;;;;5.73;3.17;;;21.30;99.90;;;;;;4982488;28;20889;-67
2023/10/12 16:00:23;;;;;;;3.53;3.20;;;21.30;99.90;;;;;;4984943;28;20537;-72
2023/10/12 16:02:51;;;;;;;2.90;2.60;;;21.30;99.90;;;;;;4982624;28;20522;-70
2023/10/12 16:05:21;;;;;;;3.70;2.77;;;21.20;99.90;;;;;;4984650;28;20497;-69
2023/10/12 16:07:53;;;;;;;3.60;2.60;;;21.20;99.90;;;;;;4984853;28;20491;-68
2023/10/12 16:10:20;;;;;;;4.60;3.30;;;21.10;99.90;;;;;;4985137;28;20473;-69
2023/10/12 16:12:52;;;;;;;4.03;2.50;;;21.10;99.90;;;;;;4985206;28;20523;-69
2023/10/12 16:15:27;;;;;;;3.80;3.23;;;21.10;99.90;;;;;;4984467;28;20476;-68
2023/10/12 16:18:01;;;;;;;4.73;3.03;;;21.10;99.90;;;;;;4985119;28;20459;-68
2023/10/12 16:20:27;;;;;;;3.40;2.70;;;21.10;99.90;;;;;;4985409;28;20983;-68
2023/10/12 16:22:56;;;;;;;5.00;3.03;;;21.10;99.90;;;;;;4982642;28;20463;-68
2023/10/12 16:25:25;;;;;;;5.70;3.40;;;21.10;99.90;;;;;;4984183;28;20459;-68
2023/10/12 16:27:58;;;;;;;8.00;3.10;;;21.10;99.90;;;;;;4985673;28;20467;-68
2023/10/12 16:30:34;;;;;;;6.00;3.20;;;21.10;99.90;;;;;;4986729;28;20491;-68
2023/10/12 16:33:01;;;;;;;3.87;3.27;;;21.00;99.90;;;;;;4987959;28;20913;-68
2023/10/12 16:35:30;;;;;;;4.07;2.57;;;21.00;99.90;;;;;;4978700;28;20460;-69
2023/10/12 16:37:59;;;;;;;3.30;3.00;;;21.00;99.90;;;;;;4986035;28;20477;-68
2023/10/12 16:40:31;;;;;;;2.77;2.57;;;20.90;99.90;;;;;;4984241;28;20966;-69
2023/10/12 16:42:59;;;;;;;3.67;2.80;;;20.90;99.90;;;;;;4985689;28;20558;-68
2023/10/12 16:45:27;;;;;;;3.73;2.37;;;20.80;99.90;;;;;;4983688;28;20469;-68
2023/10/12 16:47:56;;;;;;;3.20;2.90;;;20.80;99.90;;;;;;4984594;28;21012;-68
2023/10/12 16:50:26;;;;;;;4.60;2.77;;;20.80;99.90;;;;;;4979179;28;20469;-69
2023/10/12 16:52:59;;;;;;;3.60;2.93;;;20.70;99.90;;;;;;4983559;28;20566;-68
2023/10/12 16:55:32;;;;;;;4.30;2.87;;;20.70;99.90;;;;;;4983344;28;20494;-68
2023/10/12 16:58:08;;;;;;;4.90;2.83;;;20.70;99.90;;;;;;4985022;28;20475;-68
2023/10/12 17:00:39;;;;;;;4.80;2.70;;;20.70;99.90;;;;;;4982370;28;20573;-68
2023/10/12 17:03:11;;;;;;;3.10;2.80;;;20.70;99.90;;;;;;4985635;28;20470;-68
2023/10/12 17:05:40;;;;;;;2.33;2.07;;;20.60;99.90;;;;;;4982097;28;20462;-68
2023/10/12 17:08:08;;;;;;;4.47;3.13;;;20.60;99.90;;;;;;4985384;28;20462;-68
2023/10/12 17:10:37;;;;;;;5.10;3.63;;;20.60;99.90;;;;;;4982781;28;20830;-69
2023/10/12 17:13:04;;;;;;;3.73;2.77;;;20.60;99.90;;;;;;4984570;28;20487;-68